Terminal Aerodrome Forecast
Issued by NWS

Home | Current Version | Previous Version | Graphics & Text | Print | Product List | Glossary Off
Versions: 1 2 3 4 5 6 7 8 9 10 11 12 13 14 15 16 17 18 19 20 21 22 23

000
FTUS43 KDDC 211422 AAA
TAFGCK
TAF AMD
KGCK 211422Z 2114/2212 35009KT 1/4SM FG VV003
     FM211900 03010KT 1/2SM FG OVC003
     FM220000 26015G25KT 2SM -SN BLSN OVC003
     FM220200 28020G30KT 2SM -SN BLSN OVC008
     FM220600 34020G30KT 2SM BLSN OVC010
     FM221000 33030G40KT 5SM BLSN BKN035=

USA.gov is the U.S. government's official web portal to all federal, state and local government web resources and services.